Aviation Digital Data Service (ADDS)

Output produced by METARs form (1630 UTC 04 September 2015)
found at http://aviationweather.gov/adds/metars/
 
KSAN 041506Z 0415/0518 VRB03KT P6SM BKN025 
     FM041800 26009KT P6SM SCT035 
     FM050200 VRB05KT P6SM SCT025 BKN035 
     FM050500 VRB03KT P6SM BKN025 OVC035